sensor_id;sensor_type;location;lat;lon;timestamp;temperature;humidity
41628;DHT22;27321;50.816;6.054;2023-04-16T00:00:47;9.00;81.80
41628;DHT22;27321;50.816;6.054;2023-04-16T00:03:48;9.10;82.30
41628;DHT22;27321;50.816;6.054;2023-04-16T00:06:51;9.10;82.10
41628;DHT22;27321;50.816;6.054;2023-04-16T00:09:54;9.00;82.20
41628;DHT22;27321;50.816;6.054;2023-04-16T00:12:57;9.10;82.30
41628;DHT22;27321;50.816;6.054;2023-04-16T00:15:58;9.10;82.00
41628;DHT22;27321;50.816;6.054;2023-04-16T00:18:58;9.30;81.20
41628;DHT22;27321;50.816;6.054;2023-04-16T00:21:59;9.30;81.20
41628;DHT22;27321;50.816;6.054;2023-04-16T00:25:00;9.20;81.60
41628;DHT22;27321;50.816;6.054;2023-04-16T00:28:01;9.20;82.00
41628;DHT22;27321;50.816;6.054;2023-04-16T00:31:02;9.20;81.80
41628;DHT22;27321;50.816;6.054;2023-04-16T00:34:03;9.10;81.70
41628;DHT22;27321;50.816;6.054;2023-04-16T00:37:04;9.10;82.00
41628;DHT22;27321;50.816;6.054;2023-04-16T00:40:06;9.10;81.90
41628;DHT22;27321;50.816;6.054;2023-04-16T00:43:07;9.10;82.00
41628;DHT22;27321;50.816;6.054;2023-04-16T00:46:08;9.10;82.10
41628;DHT22;27321;50.816;6.054;2023-04-16T00:49:09;9.20;81.90
41628;DHT22;27321;50.816;6.054;2023-04-16T00:52:11;9.10;81.80
41628;DHT22;27321;50.816;6.054;2023-04-16T00:55:12;9.20;81.70
41628;DHT22;27321;50.816;6.054;2023-04-16T00:58:13;9.20;81.60
41628;DHT22;27321;50.816;6.054;2023-04-16T01:01:15;9.30;81.20
41628;DHT22;27321;50.816;6.054;2023-04-16T01:04:16;9.20;80.80
41628;DHT22;27321;50.816;6.054;2023-04-16T01:07:17;9.20;81.60
41628;DHT22;27321;50.816;6.054;2023-04-16T01:10:18;9.10;81.80
41628;DHT22;27321;50.816;6.054;2023-04-16T01:13:19;9.10;81.50
41628;DHT22;27321;50.816;6.054;2023-04-16T01:16:20;9.10;82.10
41628;DHT22;27321;50.816;6.054;2023-04-16T01:19:21;9.00;82.10
41628;DHT22;27321;50.816;6.054;2023-04-16T01:22:22;9.00;82.30
41628;DHT22;27321;50.816;6.054;2023-04-16T01:25:23;9.00;82.40
41628;DHT22;27321;50.816;6.054;2023-04-16T01:28:24;9.00;82.10
41628;DHT22;27321;50.816;6.054;2023-04-16T01:31:25;8.90;82.20
41628;DHT22;27321;50.816;6.054;2023-04-16T01:34:37;8.90;82.40
41628;DHT22;27321;50.816;6.054;2023-04-16T01:37:38;8.80;82.60
41628;DHT22;27321;50.816;6.054;2023-04-16T01:40:39;8.90;82.60
41628;DHT22;27321;50.816;6.054;2023-04-16T01:43:40;9.00;82.80
41628;DHT22;27321;50.816;6.054;2023-04-16T01:46:42;9.00;82.20
41628;DHT22;27321;50.816;6.054;2023-04-16T01:49:44;8.90;82.20
41628;DHT22;27321;50.816;6.054;2023-04-16T01:52:47;8.80;83.00
41628;DHT22;27321;50.816;6.054;2023-04-16T01:55:48;8.80;83.10
41628;DHT22;27321;50.816;6.054;2023-04-16T01:58:49;8.90;83.00
41628;DHT22;27321;50.816;6.054;2023-04-16T02:01:52;9.00;82.50
41628;DHT22;27321;50.816;6.054;2023-04-16T02:04:54;9.00;82.40
41628;DHT22;27321;50.816;6.054;2023-04-16T02:07:58;9.00;82.80
41628;DHT22;27321;50.816;6.054;2023-04-16T02:10:59;9.10;82.50
41628;DHT22;27321;50.816;6.054;2023-04-16T02:14:00;9.00;82.20
41628;DHT22;27321;50.816;6.054;2023-04-16T02:17:02;9.00;82.40
41628;DHT22;27321;50.816;6.054;2023-04-16T02:20:11;9.00;82.40
41628;DHT22;27321;50.816;6.054;2023-04-16T02:23:18;9.00;82.70
41628;DHT22;27321;50.816;6.054;2023-04-16T02:26:19;9.10;81.90
41628;DHT22;27321;50.816;6.054;2023-04-16T02:29:22;9.10;82.50
41628;DHT22;27321;50.816;6.054;2023-04-16T02:32:29;9.10;82.20
41628;DHT22;27321;50.816;6.054;2023-04-16T02:35:31;9.10;81.70
41628;DHT22;27321;50.816;6.054;2023-04-16T02:38:36;9.10;82.10
41628;DHT22;27321;50.816;6.054;2023-04-16T02:41:37;9.20;81.70
41628;DHT22;27321;50.816;6.054;2023-04-16T02:44:38;9.10;81.90
41628;DHT22;27321;50.816;6.054;2023-04-16T02:47:39;9.20;81.90
41628;DHT22;27321;50.816;6.054;2023-04-16T02:50:40;9.10;81.60
41628;DHT22;27321;50.816;6.054;2023-04-16T02:53:41;9.10;81.90
41628;DHT22;27321;50.816;6.054;2023-04-16T02:56:46;9.10;81.90
41628;DHT22;27321;50.816;6.054;2023-04-16T02:59:47;8.90;82.80
41628;DHT22;27321;50.816;6.054;2023-04-16T03:02:48;8.90;82.60
41628;DHT22;27321;50.816;6.054;2023-04-16T03:05:49;9.00;83.10
41628;DHT22;27321;50.816;6.054;2023-04-16T03:08:50;9.10;82.30
41628;DHT22;27321;50.816;6.054;2023-04-16T03:11:51;9.10;82.70
41628;DHT22;27321;50.816;6.054;2023-04-16T03:14:52;9.10;82.30
41628;DHT22;27321;50.816;6.054;2023-04-16T03:17:53;9.10;82.40
41628;DHT22;27321;50.816;6.054;2023-04-16T03:20:54;8.90;83.00
41628;DHT22;27321;50.816;6.054;2023-04-16T03:23:55;8.90;83.60
41628;DHT22;27321;50.816;6.054;2023-04-16T03:26:57;8.80;83.40
41628;DHT22;27321;50.816;6.054;2023-04-16T03:29:58;8.80;83.50
41628;DHT22;27321;50.816;6.054;2023-04-16T03:33:01;8.90;83.70
41628;DHT22;27321;50.816;6.054;2023-04-16T03:36:03;8.80;83.70
41628;DHT22;27321;50.816;6.054;2023-04-16T03:39:05;8.80;83.70
41628;DHT22;27321;50.816;6.054;2023-04-16T03:42:06;8.80;84.10
41628;DHT22;27321;50.816;6.054;2023-04-16T03:45:08;8.90;84.00
41628;DHT22;27321;50.816;6.054;2023-04-16T03:48:10;8.90;84.20
41628;DHT22;27321;50.816;6.054;2023-04-16T03:51:11;8.90;83.80
41628;DHT22;27321;50.816;6.054;2023-04-16T03:54:13;8.90;83.90
41628;DHT22;27321;50.816;6.054;2023-04-16T03:57:16;8.80;84.50
41628;DHT22;27321;50.816;6.054;2023-04-16T04:00:17;8.80;84.00
41628;DHT22;27321;50.816;6.054;2023-04-16T04:03:31;8.80;84.50
41628;DHT22;27321;50.816;6.054;2023-04-16T04:06:32;8.80;84.40
41628;DHT22;27321;50.816;6.054;2023-04-16T04:09:33;8.90;84.30
41628;DHT22;27321;50.816;6.054;2023-04-16T04:12:34;8.90;84.80
41628;DHT22;27321;50.816;6.054;2023-04-16T04:15:35;9.00;83.90
41628;DHT22;27321;50.816;6.054;2023-04-16T04:18:36;9.00;83.80
41628;DHT22;27321;50.816;6.054;2023-04-16T04:21:39;8.90;84.50
41628;DHT22;27321;50.816;6.054;2023-04-16T04:24:40;8.90;84.10
41628;DHT22;27321;50.816;6.054;2023-04-16T04:27:41;8.90;84.00
41628;DHT22;27321;50.816;6.054;2023-04-16T04:30:42;9.00;84.30
41628;DHT22;27321;50.816;6.054;2023-04-16T04:33:44;8.90;84.40
41628;DHT22;27321;50.816;6.054;2023-04-16T04:36:46;8.90;85.10
41628;DHT22;27321;50.816;6.054;2023-04-16T04:39:48;8.90;84.50
41628;DHT22;27321;50.816;6.054;2023-04-16T04:42:49;8.90;84.50
41628;DHT22;27321;50.816;6.054;2023-04-16T04:45:50;8.90;84.20
41628;DHT22;27321;50.816;6.054;2023-04-16T04:48:51;8.90;84.60
41628;DHT22;27321;50.816;6.054;2023-04-16T04:51:53;8.80;85.00
41628;DHT22;27321;50.816;6.054;2023-04-16T04:54:55;8.80;85.00
41628;DHT22;27321;50.816;6.054;2023-04-16T04:57:56;8.80;85.30
41628;DHT22;27321;50.816;6.054;2023-04-16T05:00:57;8.90;84.80
41628;DHT22;27321;50.816;6.054;2023-04-16T05:03:58;8.90;84.70
41628;DHT22;27321;50.816;6.054;2023-04-16T05:06:59;8.90;84.70
41628;DHT22;27321;50.816;6.054;2023-04-16T05:10:01;8.80;85.10
41628;DHT22;27321;50.816;6.054;2023-04-16T05:13:02;8.90;85.10
41628;DHT22;27321;50.816;6.054;2023-04-16T05:16:03;8.90;84.80
41628;DHT22;27321;50.816;6.054;2023-04-16T05:19:04;8.90;85.00
41628;DHT22;27321;50.816;6.054;2023-04-16T05:22:05;9.00;84.80
41628;DHT22;27321;50.816;6.054;2023-04-16T05:25:07;9.00;85.10
41628;DHT22;27321;50.816;6.054;2023-04-16T05:28:09;9.10;85.10
41628;DHT22;27321;50.816;6.054;2023-04-16T05:31:10;9.10;84.80
41628;DHT22;27321;50.816;6.054;2023-04-16T05:34:11;9.10;85.10
41628;DHT22;27321;50.816;6.054;2023-04-16T05:37:12;9.10;84.90
41628;DHT22;27321;50.816;6.054;2023-04-16T05:40:13;9.00;84.90
41628;DHT22;27321;50.816;6.054;2023-04-16T05:43:14;9.00;85.10
41628;DHT22;27321;50.816;6.054;2023-04-16T05:46:15;8.90;85.20
41628;DHT22;27321;50.816;6.054;2023-04-16T05:49:16;8.90;85.40
41628;DHT22;27321;50.816;6.054;2023-04-16T05:52:21;9.00;85.40
41628;DHT22;27321;50.816;6.054;2023-04-16T05:55:22;9.00;85.70
41628;DHT22;27321;50.816;6.054;2023-04-16T05:58:23;9.00;85.50
41628;DHT22;27321;50.816;6.054;2023-04-16T06:01:24;9.10;85.10
41628;DHT22;27321;50.816;6.054;2023-04-16T06:04:25;9.10;84.90
41628;DHT22;27321;50.816;6.054;2023-04-16T06:07:26;9.20;85.20
41628;DHT22;27321;50.816;6.054;2023-04-16T06:10:27;9.30;84.90
41628;DHT22;27321;50.816;6.054;2023-04-16T06:13:28;9.30;84.20
41628;DHT22;27321;50.816;6.054;2023-04-16T06:16:29;9.30;84.40
41628;DHT22;27321;50.816;6.054;2023-04-16T06:19:30;9.30;84.50
41628;DHT22;27321;50.816;6.054;2023-04-16T06:22:31;9.30;84.80
41628;DHT22;27321;50.816;6.054;2023-04-16T06:25:32;9.20;85.30
41628;DHT22;27321;50.816;6.054;2023-04-16T06:28:33;9.20;85.20
41628;DHT22;27321;50.816;6.054;2023-04-16T06:31:34;9.30;85.30
41628;DHT22;27321;50.816;6.054;2023-04-16T06:34:36;9.20;84.60
41628;DHT22;27321;50.816;6.054;2023-04-16T06:37:38;9.30;85.50
41628;DHT22;27321;50.816;6.054;2023-04-16T06:40:39;9.40;85.30
41628;DHT22;27321;50.816;6.054;2023-04-16T06:43:40;9.40;84.40
41628;DHT22;27321;50.816;6.054;2023-04-16T06:46:41;9.40;84.70
41628;DHT22;27321;50.816;6.054;2023-04-16T06:49:42;9.40;85.10
41628;DHT22;27321;50.816;6.054;2023-04-16T06:52:43;9.50;84.80
41628;DHT22;27321;50.816;6.054;2023-04-16T06:55:44;9.40;85.00
41628;DHT22;27321;50.816;6.054;2023-04-16T06:58:45;9.40;84.90
41628;DHT22;27321;50.816;6.054;2023-04-16T07:01:46;9.50;85.00
41628;DHT22;27321;50.816;6.054;2023-04-16T07:04:47;9.40;84.70
41628;DHT22;27321;50.816;6.054;2023-04-16T07:07:48;9.50;85.40
41628;DHT22;27321;50.816;6.054;2023-04-16T07:10:49;9.50;85.00
41628;DHT22;27321;50.816;6.054;2023-04-16T07:13:54;9.50;84.80
41628;DHT22;27321;50.816;6.054;2023-04-16T07:16:55;9.40;85.00
41628;DHT22;27321;50.816;6.054;2023-04-16T07:19:56;9.40;85.50
41628;DHT22;27321;50.816;6.054;2023-04-16T07:22:57;9.30;85.50
41628;DHT22;27321;50.816;6.054;2023-04-16T07:25:59;9.40;86.10
41628;DHT22;27321;50.816;6.054;2023-04-16T07:29:00;9.40;85.60
41628;DHT22;27321;50.816;6.054;2023-04-16T07:32:01;9.30;86.00
41628;DHT22;27321;50.816;6.054;2023-04-16T07:35:05;9.40;85.90
41628;DHT22;27321;50.816;6.054;2023-04-16T07:38:06;9.40;85.40
41628;DHT22;27321;50.816;6.054;2023-04-16T07:41:07;9.40;85.50
41628;DHT22;27321;50.816;6.054;2023-04-16T07:44:08;9.50;85.90
41628;DHT22;27321;50.816;6.054;2023-04-16T07:47:10;9.50;85.30
41628;DHT22;27321;50.816;6.054;2023-04-16T07:50:11;9.50;85.20
41628;DHT22;27321;50.816;6.054;2023-04-16T07:53:13;9.50;85.40
41628;DHT22;27321;50.816;6.054;2023-04-16T07:56:15;9.50;85.50
41628;DHT22;27321;50.816;6.054;2023-04-16T07:59:17;9.50;85.30
41628;DHT22;27321;50.816;6.054;2023-04-16T08:02:18;9.40;85.70
41628;DHT22;27321;50.816;6.054;2023-04-16T08:05:19;9.30;85.70
41628;DHT22;27321;50.816;6.054;2023-04-16T08:08:21;9.30;86.30
41628;DHT22;27321;50.816;6.054;2023-04-16T08:11:22;9.40;86.00
41628;DHT22;27321;50.816;6.054;2023-04-16T08:14:24;9.40;86.40
41628;DHT22;27321;50.816;6.054;2023-04-16T08:17:25;9.50;85.90
41628;DHT22;27321;50.816;6.054;2023-04-16T08:20:27;9.40;85.80
41628;DHT22;27321;50.816;6.054;2023-04-16T08:23:29;9.50;85.80
41628;DHT22;27321;50.816;6.054;2023-04-16T08:26:34;9.50;85.70
41628;DHT22;27321;50.816;6.054;2023-04-16T08:29:35;9.50;85.80
41628;DHT22;27321;50.816;6.054;2023-04-16T08:32:37;9.50;86.10
41628;DHT22;27321;50.816;6.054;2023-04-16T08:35:38;9.60;86.00
41628;DHT22;27321;50.816;6.054;2023-04-16T08:38:39;9.60;85.40
41628;DHT22;27321;50.816;6.054;2023-04-16T08:41:42;9.60;85.50
41628;DHT22;27321;50.816;6.054;2023-04-16T08:44:47;9.60;85.50
41628;DHT22;27321;50.816;6.054;2023-04-16T08:47:50;9.60;85.70
41628;DHT22;27321;50.816;6.054;2023-04-16T08:50:52;9.70;85.40
41628;DHT22;27321;50.816;6.054;2023-04-16T08:53:58;9.70;84.90
41628;DHT22;27321;50.816;6.054;2023-04-16T08:57:01;9.60;85.40
41628;DHT22;27321;50.816;6.054;2023-04-16T09:00:06;9.70;85.50
41628;DHT22;27321;50.816;6.054;2023-04-16T09:03:09;9.70;85.70
41628;DHT22;27321;50.816;6.054;2023-04-16T09:06:10;9.60;85.80
41628;DHT22;27321;50.816;6.054;2023-04-16T09:09:11;9.70;85.90
41628;DHT22;27321;50.816;6.054;2023-04-16T09:12:13;9.80;85.80
41628;DHT22;27321;50.816;6.054;2023-04-16T09:15:15;9.80;85.50
41628;DHT22;27321;50.816;6.054;2023-04-16T09:18:16;9.80;85.80
41628;DHT22;27321;50.816;6.054;2023-04-16T09:21:21;9.80;85.50
41628;DHT22;27321;50.816;6.054;2023-04-16T09:24:24;9.80;85.50
41628;DHT22;27321;50.816;6.054;2023-04-16T09:27:26;9.80;85.00
41628;DHT22;27321;50.816;6.054;2023-04-16T09:30:31;9.90;85.20
41628;DHT22;27321;50.816;6.054;2023-04-16T09:33:33;9.90;85.00
41628;DHT22;27321;50.816;6.054;2023-04-16T09:36:37;9.90;85.10
41628;DHT22;27321;50.816;6.054;2023-04-16T09:39:38;10.00;84.80
41628;DHT22;27321;50.816;6.054;2023-04-16T09:42:39;10.00;85.20
41628;DHT22;27321;50.816;6.054;2023-04-16T09:46:07;10.00;85.00
41628;DHT22;27321;50.816;6.054;2023-04-16T09:49:15;10.10;85.30
41628;DHT22;27321;50.816;6.054;2023-04-16T09:52:21;10.10;84.70
41628;DHT22;27321;50.816;6.054;2023-04-16T09:55:26;10.10;84.80
41628;DHT22;27321;50.816;6.054;2023-04-16T09:58:27;10.20;84.90
41628;DHT22;27321;50.816;6.054;2023-04-16T10:01:29;10.20;84.60
41628;DHT22;27321;50.816;6.054;2023-04-16T10:07:50;10.10;84.90
41628;DHT22;27321;50.816;6.054;2023-04-16T10:10:53;10.10;85.10
41628;DHT22;27321;50.816;6.054;2023-04-16T10:13:55;10.10;85.00
41628;DHT22;27321;50.816;6.054;2023-04-16T10:16:57;10.00;85.00
41628;DHT22;27321;50.816;6.054;2023-04-16T10:19:58;10.00;85.50
41628;DHT22;27321;50.816;6.054;2023-04-16T10:23:02;10.00;85.30
41628;DHT22;27321;50.816;6.054;2023-04-16T10:26:04;10.10;85.90
41628;DHT22;27321;50.816;6.054;2023-04-16T10:29:07;10.20;85.40
41628;DHT22;27321;50.816;6.054;2023-04-16T10:32:09;10.20;84.90
41628;DHT22;27321;50.816;6.054;2023-04-16T10:35:19;10.30;84.90
41628;DHT22;27321;50.816;6.054;2023-04-16T10:38:26;10.20;85.00
41628;DHT22;27321;50.816;6.054;2023-04-16T10:41:30;10.30;85.20
41628;DHT22;27321;50.816;6.054;2023-04-16T10:44:34;10.30;85.00
41628;DHT22;27321;50.816;6.054;2023-04-16T10:47:39;10.40;84.80
41628;DHT22;27321;50.816;6.054;2023-04-16T10:50:40;10.40;85.10
41628;DHT22;27321;50.816;6.054;2023-04-16T10:53:41;10.30;84.50
41628;DHT22;27321;50.816;6.054;2023-04-16T10:56:44;10.30;85.00
41628;DHT22;27321;50.816;6.054;2023-04-16T10:59:47;10.30;85.20
41628;DHT22;27321;50.816;6.054;2023-04-16T11:02:52;10.40;85.10
41628;DHT22;27321;50.816;6.054;2023-04-16T11:06:15;10.50;85.10
41628;DHT22;27321;50.816;6.054;2023-04-16T11:09:51;10.70;84.70
41628;DHT22;27321;50.816;6.054;2023-04-16T11:13:00;10.90;84.40
41628;DHT22;27321;50.816;6.054;2023-04-16T11:16:02;11.00;83.30
41628;DHT22;27321;50.816;6.054;2023-04-16T11:19:06;11.00;83.50
41628;DHT22;27321;50.816;6.054;2023-04-16T11:22:07;11.10;82.60
41628;DHT22;27321;50.816;6.054;2023-04-16T11:25:08;11.00;82.20
41628;DHT22;27321;50.816;6.054;2023-04-16T11:28:09;10.90;82.90
41628;DHT22;27321;50.816;6.054;2023-04-16T11:31:11;10.90;83.00
41628;DHT22;27321;50.816;6.054;2023-04-16T11:34:14;10.80;82.80
41628;DHT22;27321;50.816;6.054;2023-04-16T11:37:30;10.80;83.20
41628;DHT22;27321;50.816;6.054;2023-04-16T11:40:34;10.80;82.70
41628;DHT22;27321;50.816;6.054;2023-04-16T11:43:36;10.90;83.10
41628;DHT22;27321;50.816;6.054;2023-04-16T11:46:38;11.00;83.00
41628;DHT22;27321;50.816;6.054;2023-04-16T11:49:40;11.20;82.00
41628;DHT22;27321;50.816;6.054;2023-04-16T11:52:41;11.30;82.10
41628;DHT22;27321;50.816;6.054;2023-04-16T11:55:42;11.50;82.40
41628;DHT22;27321;50.816;6.054;2023-04-16T11:59:08;11.60;81.60
41628;DHT22;27321;50.816;6.054;2023-04-16T12:02:10;11.80;81.30
41628;DHT22;27321;50.816;6.054;2023-04-16T12:05:35;12.10;81.60
41628;DHT22;27321;50.816;6.054;2023-04-16T12:08:41;12.20;80.60
41628;DHT22;27321;50.816;6.054;2023-04-16T12:11:42;12.30;79.40
41628;DHT22;27321;50.816;6.054;2023-04-16T12:14:50;12.40;79.60
41628;DHT22;27321;50.816;6.054;2023-04-16T12:18:05;12.40;78.80
41628;DHT22;27321;50.816;6.054;2023-04-16T12:21:07;12.40;78.80
41628;DHT22;27321;50.816;6.054;2023-04-16T12:24:11;12.20;78.40
41628;DHT22;27321;50.816;6.054;2023-04-16T12:27:13;12.20;79.60
41628;DHT22;27321;50.816;6.054;2023-04-16T12:30:21;12.40;79.00
41628;DHT22;27321;50.816;6.054;2023-04-16T12:33:23;12.60;78.50
41628;DHT22;27321;50.816;6.054;2023-04-16T12:36:24;12.70;77.80
41628;DHT22;27321;50.816;6.054;2023-04-16T12:39:25;13.00;77.50
41628;DHT22;27321;50.816;6.054;2023-04-16T12:42:27;13.00;76.20
41628;DHT22;27321;50.816;6.054;2023-04-16T12:45:34;13.10;76.90
41628;DHT22;27321;50.816;6.054;2023-04-16T12:48:35;13.10;76.40
41628;DHT22;27321;50.816;6.054;2023-04-16T12:51:38;13.10;76.40
41628;DHT22;27321;50.816;6.054;2023-04-16T12:54:39;13.20;76.20
41628;DHT22;27321;50.816;6.054;2023-04-16T12:57:41;13.10;75.80
41628;DHT22;27321;50.816;6.054;2023-04-16T13:00:42;12.90;75.40
41628;DHT22;27321;50.816;6.054;2023-04-16T13:03:43;12.80;75.40
41628;DHT22;27321;50.816;6.054;2023-04-16T13:06:44;12.60;76.40
41628;DHT22;27321;50.816;6.054;2023-04-16T13:09:46;12.60;76.70
41628;DHT22;27321;50.816;6.054;2023-04-16T13:12:47;12.60;76.80
41628;DHT22;27321;50.816;6.054;2023-04-16T13:15:48;12.60;76.40
41628;DHT22;27321;50.816;6.054;2023-04-16T13:18:49;12.70;76.70
41628;DHT22;27321;50.816;6.054;2023-04-16T13:21:51;12.80;76.40
41628;DHT22;27321;50.816;6.054;2023-04-16T13:24:52;12.80;76.60
41628;DHT22;27321;50.816;6.054;2023-04-16T13:27:53;12.80;76.10
41628;DHT22;27321;50.816;6.054;2023-04-16T13:30:55;12.70;76.70
41628;DHT22;27321;50.816;6.054;2023-04-16T13:33:56;12.80;77.00
41628;DHT22;27321;50.816;6.054;2023-04-16T13:36:57;12.70;76.50
41628;DHT22;27321;50.816;6.054;2023-04-16T13:39:58;12.70;76.90
41628;DHT22;27321;50.816;6.054;2023-04-16T13:42:59;12.80;76.50
41628;DHT22;27321;50.816;6.054;2023-04-16T13:46:00;12.80;76.50
41628;DHT22;27321;50.816;6.054;2023-04-16T13:49:01;12.70;76.00
41628;DHT22;27321;50.816;6.054;2023-04-16T13:52:02;12.60;76.90
41628;DHT22;27321;50.816;6.054;2023-04-16T13:55:03;12.50;77.10
41628;DHT22;27321;50.816;6.054;2023-04-16T13:58:05;12.60;77.40
41628;DHT22;27321;50.816;6.054;2023-04-16T14:01:07;12.60;77.20
41628;DHT22;27321;50.816;6.054;2023-04-16T14:04:11;12.60;76.90
41628;DHT22;27321;50.816;6.054;2023-04-16T14:07:13;12.70;77.20
41628;DHT22;27321;50.816;6.054;2023-04-16T14:10:17;12.80;76.70
41628;DHT22;27321;50.816;6.054;2023-04-16T14:13:18;12.80;76.30
41628;DHT22;27321;50.816;6.054;2023-04-16T14:16:19;12.90;77.00
41628;DHT22;27321;50.816;6.054;2023-04-16T14:19:20;12.90;76.50
41628;DHT22;27321;50.816;6.054;2023-04-16T14:22:22;12.90;76.40
41628;DHT22;27321;50.816;6.054;2023-04-16T14:25:23;12.90;75.80
41628;DHT22;27321;50.816;6.054;2023-04-16T14:28:23;12.90;75.80
41628;DHT22;27321;50.816;6.054;2023-04-16T14:31:25;13.00;76.10
41628;DHT22;27321;50.816;6.054;2023-04-16T14:34:26;12.90;75.20
41628;DHT22;27321;50.816;6.054;2023-04-16T14:37:27;13.00;76.30
41628;DHT22;27321;50.816;6.054;2023-04-16T14:40:28;13.10;75.60
41628;DHT22;27321;50.816;6.054;2023-04-16T14:43:29;13.10;75.30
41628;DHT22;27321;50.816;6.054;2023-04-16T14:46:30;13.10;76.10
41628;DHT22;27321;50.816;6.054;2023-04-16T14:49:33;13.10;75.40
41628;DHT22;27321;50.816;6.054;2023-04-16T14:52:34;13.10;75.20
41628;DHT22;27321;50.816;6.054;2023-04-16T14:55:35;13.10;75.40
41628;DHT22;27321;50.816;6.054;2023-04-16T14:58:36;13.20;75.80
41628;DHT22;27321;50.816;6.054;2023-04-16T15:01:38;13.10;75.40
41628;DHT22;27321;50.816;6.054;2023-04-16T15:04:39;13.20;74.70
41628;DHT22;27321;50.816;6.054;2023-04-16T15:07:41;13.20;75.60
41628;DHT22;27321;50.816;6.054;2023-04-16T15:10:41;13.20;74.90
41628;DHT22;27321;50.816;6.054;2023-04-16T15:13:45;13.20;74.40
41628;DHT22;27321;50.816;6.054;2023-04-16T15:16:46;13.20;74.90
41628;DHT22;27321;50.816;6.054;2023-04-16T15:19:48;13.30;75.20
41628;DHT22;27321;50.816;6.054;2023-04-16T15:22:50;13.30;74.60
41628;DHT22;27321;50.816;6.054;2023-04-16T15:25:51;13.30;74.70
41628;DHT22;27321;50.816;6.054;2023-04-16T15:28:52;13.50;74.80
41628;DHT22;27321;50.816;6.054;2023-04-16T15:31:53;13.70;74.20
41628;DHT22;27321;50.816;6.054;2023-04-16T15:34:54;13.90;73.30
41628;DHT22;27321;50.816;6.054;2023-04-16T15:37:55;14.00;72.20
41628;DHT22;27321;50.816;6.054;2023-04-16T15:40:59;13.80;72.90
41628;DHT22;27321;50.816;6.054;2023-04-16T15:44:00;13.70;72.00
41628;DHT22;27321;50.816;6.054;2023-04-16T15:47:01;13.60;73.50
41628;DHT22;27321;50.816;6.054;2023-04-16T15:50:02;13.70;73.60
41628;DHT22;27321;50.816;6.054;2023-04-16T15:53:03;13.70;72.60
41628;DHT22;27321;50.816;6.054;2023-04-16T15:56:05;13.60;72.40
41628;DHT22;27321;50.816;6.054;2023-04-16T15:59:06;13.40;72.70
41628;DHT22;27321;50.816;6.054;2023-04-16T16:02:07;13.10;73.40
41628;DHT22;27321;50.816;6.054;2023-04-16T16:05:09;13.00;74.00
41628;DHT22;27321;50.816;6.054;2023-04-16T16:08:12;13.00;74.20
41628;DHT22;27321;50.816;6.054;2023-04-16T16:11:13;13.10;74.40
41628;DHT22;27321;50.816;6.054;2023-04-16T16:14:14;13.10;74.20
41628;DHT22;27321;50.816;6.054;2023-04-16T16:17:16;13.00;74.50
41628;DHT22;27321;50.816;6.054;2023-04-16T16:20:18;12.80;74.60
41628;DHT22;27321;50.816;6.054;2023-04-16T16:23:20;12.80;74.60
41628;DHT22;27321;50.816;6.054;2023-04-16T16:26:22;12.80;75.00
41628;DHT22;27321;50.816;6.054;2023-04-16T16:29:23;12.80;75.20
41628;DHT22;27321;50.816;6.054;2023-04-16T16:32:24;12.80;75.20
41628;DHT22;27321;50.816;6.054;2023-04-16T16:35:25;12.80;74.90
41628;DHT22;27321;50.816;6.054;2023-04-16T16:38:26;12.80;75.20
41628;DHT22;27321;50.816;6.054;2023-04-16T16:41:27;12.90;74.80
41628;DHT22;27321;50.816;6.054;2023-04-16T16:44:28;12.80;74.70
41628;DHT22;27321;50.816;6.054;2023-04-16T16:47:30;12.80;75.10
41628;DHT22;27321;50.816;6.054;2023-04-16T16:50:31;12.90;74.90
41628;DHT22;27321;50.816;6.054;2023-04-16T16:53:32;12.90;75.10
41628;DHT22;27321;50.816;6.054;2023-04-16T16:56:33;12.90;74.20
41628;DHT22;27321;50.816;6.054;2023-04-16T16:59:34;12.80;74.00
41628;DHT22;27321;50.816;6.054;2023-04-16T17:02:36;12.80;73.90
41628;DHT22;27321;50.816;6.054;2023-04-16T17:05:37;12.80;74.20
41628;DHT22;27321;50.816;6.054;2023-04-16T17:08:38;12.80;74.50
41628;DHT22;27321;50.816;6.054;2023-04-16T17:11:39;12.70;74.40
41628;DHT22;27321;50.816;6.054;2023-04-16T17:14:40;12.70;74.60
41628;DHT22;27321;50.816;6.054;2023-04-16T17:17:41;12.70;74.50
41628;DHT22;27321;50.816;6.054;2023-04-16T17:20:43;12.70;74.80
41628;DHT22;27321;50.816;6.054;2023-04-16T17:23:44;12.70;74.60
41628;DHT22;27321;50.816;6.054;2023-04-16T17:26:45;12.60;74.50
41628;DHT22;27321;50.816;6.054;2023-04-16T17:29:45;12.60;74.30
41628;DHT22;27321;50.816;6.054;2023-04-16T17:32:46;12.60;74.50
41628;DHT22;27321;50.816;6.054;2023-04-16T17:35:47;12.50;74.90
41628;DHT22;27321;50.816;6.054;2023-04-16T17:38:48;12.50;74.60
41628;DHT22;27321;50.816;6.054;2023-04-16T17:41:50;12.40;74.30
41628;DHT22;27321;50.816;6.054;2023-04-16T17:44:54;12.40;74.60
41628;DHT22;27321;50.816;6.054;2023-04-16T17:47:55;12.30;74.70
41628;DHT22;27321;50.816;6.054;2023-04-16T17:50:56;12.30;74.40
41628;DHT22;27321;50.816;6.054;2023-04-16T17:53:57;12.30;74.30
41628;DHT22;27321;50.816;6.054;2023-04-16T17:56:58;12.30;74.40
41628;DHT22;27321;50.816;6.054;2023-04-16T17:59:59;12.40;74.60
41628;DHT22;27321;50.816;6.054;2023-04-16T18:03:00;12.40;74.60
41628;DHT22;27321;50.816;6.054;2023-04-16T18:06:01;12.40;74.50
41628;DHT22;27321;50.816;6.054;2023-04-16T18:09:02;12.40;74.50
41628;DHT22;27321;50.816;6.054;2023-04-16T18:12:05;12.40;74.50
41628;DHT22;27321;50.816;6.054;2023-04-16T18:15:07;12.40;74.10
41628;DHT22;27321;50.816;6.054;2023-04-16T18:18:09;12.40;74.20
41628;DHT22;27321;50.816;6.054;2023-04-16T18:21:11;12.40;74.10
41628;DHT22;27321;50.816;6.054;2023-04-16T18:24:12;12.30;73.70
41628;DHT22;27321;50.816;6.054;2023-04-16T18:27:14;12.20;74.30
41628;DHT22;27321;50.816;6.054;2023-04-16T18:30:16;12.10;74.70
41628;DHT22;27321;50.816;6.054;2023-04-16T18:33:18;12.00;75.40
41628;DHT22;27321;50.816;6.054;2023-04-16T18:36:19;12.00;75.60
41628;DHT22;27321;50.816;6.054;2023-04-16T18:39:21;11.90;75.60
41628;DHT22;27321;50.816;6.054;2023-04-16T18:42:23;12.00;75.50
41628;DHT22;27321;50.816;6.054;2023-04-16T18:45:24;12.00;75.80
41628;DHT22;27321;50.816;6.054;2023-04-16T18:48:28;12.00;75.50
41628;DHT22;27321;50.816;6.054;2023-04-16T18:51:32;12.00;75.70
41628;DHT22;27321;50.816;6.054;2023-04-16T18:54:33;11.90;75.60
41628;DHT22;27321;50.816;6.054;2023-04-16T18:57:36;12.00;75.90
41628;DHT22;27321;50.816;6.054;2023-04-16T19:00:37;12.00;75.60
41628;DHT22;27321;50.816;6.054;2023-04-16T19:03:38;11.90;75.60
41628;DHT22;27321;50.816;6.054;2023-04-16T19:06:39;11.90;75.40
41628;DHT22;27321;50.816;6.054;2023-04-16T19:09:40;12.00;75.60
41628;DHT22;27321;50.816;6.054;2023-04-16T19:12:41;12.00;75.50
41628;DHT22;27321;50.816;6.054;2023-04-16T19:15:45;12.00;75.60
41628;DHT22;27321;50.816;6.054;2023-04-16T19:18:46;12.00;75.40
41628;DHT22;27321;50.816;6.054;2023-04-16T19:21:47;12.00;75.70